createdAt,value
2023-08-28T00:00:36.339Z,20.17
2023-08-28T00:03:04.581Z,20.03
2023-08-28T00:05:32.788Z,19.87
2023-08-28T00:08:00.694Z,19.81
2023-08-28T00:10:28.403Z,19.90
2023-08-28T00:12:56.184Z,20.06
2023-08-28T00:15:24.029Z,20.01
2023-08-28T00:17:51.886Z,20.01
2023-08-28T00:20:19.686Z,20.00
2023-08-28T00:22:47.486Z,20.13
2023-08-28T00:25:15.292Z,20.11
2023-08-28T00:27:43.049Z,19.84
2023-08-28T00:30:11.303Z,19.94
2023-08-28T00:32:40.531Z,19.95
2023-08-28T00:35:09.316Z,19.81
2023-08-28T00:37:37.093Z,19.93
2023-08-28T00:40:05.284Z,19.91
2023-08-28T00:42:34.398Z,19.92
2023-08-28T00:45:02.277Z,19.96
2023-08-28T00:47:30.125Z,19.83
2023-08-28T00:49:58.014Z,19.90
2023-08-28T00:52:27.316Z,19.79
2023-08-28T00:54:55.182Z,19.45
2023-08-28T00:57:22.962Z,19.36
2023-08-28T00:59:50.759Z,19.51
2023-08-28T01:02:19.099Z,19.55
2023-08-28T01:04:47.004Z,19.51
2023-08-28T01:07:22.054Z,19.42
2023-08-28T01:10:14.188Z,19.44
2023-08-28T01:12:55.057Z,19.21
2023-08-28T01:15:23.624Z,19.26
2023-08-28T01:17:59.677Z,18.96
2023-08-28T01:20:28.649Z,18.70
2023-08-28T01:22:59.945Z,18.63
2023-08-28T01:25:28.148Z,18.65
2023-08-28T01:27:56.947Z,18.94
2023-08-28T01:30:24.781Z,18.77
2023-08-28T01:32:52.645Z,18.81
2023-08-28T01:35:23.081Z,18.91
2023-08-28T01:38:00.026Z,18.81
2023-08-28T01:40:34.274Z,18.55
2023-08-28T01:43:03.022Z,18.52
2023-08-28T01:45:30.961Z,18.64
2023-08-28T01:47:59.994Z,18.40
2023-08-28T01:50:27.903Z,18.38
2023-08-28T01:52:55.683Z,18.51
2023-08-28T01:55:42.730Z,18.52
2023-08-28T01:58:10.631Z,18.55
2023-08-28T02:00:38.380Z,18.66
2023-08-28T02:03:06.714Z,18.34
2023-08-28T02:05:34.565Z,18.20
2023-08-28T02:08:02.696Z,18.38
2023-08-28T02:10:30.915Z,18.40
2023-08-28T02:12:58.888Z,18.36
2023-08-28T02:15:26.830Z,18.35
2023-08-28T02:17:54.618Z,18.39
2023-08-28T02:20:22.445Z,18.30
2023-08-28T02:22:50.954Z,18.40
2023-08-28T02:25:22.074Z,18.34
2023-08-28T02:27:52.792Z,18.34
2023-08-28T02:30:20.631Z,18.47
2023-08-28T02:32:48.492Z,18.42
2023-08-28T02:35:16.343Z,18.48
2023-08-28T02:37:44.539Z,18.52
2023-08-28T02:40:12.418Z,18.49
2023-08-28T02:42:40.256Z,18.43
2023-08-28T02:45:08.914Z,18.51
2023-08-28T02:47:38.298Z,18.60
2023-08-28T02:50:06.589Z,18.56
2023-08-28T02:52:34.386Z,18.54
2023-08-28T02:55:02.278Z,18.62
2023-08-28T02:57:30.042Z,18.59
2023-08-28T02:59:57.856Z,18.35
2023-08-28T03:02:25.725Z,18.61
2023-08-28T03:04:53.569Z,18.47
2023-08-28T03:07:21.507Z,18.48
2023-08-28T03:09:49.438Z,18.00
2023-08-28T03:12:17.172Z,18.28
2023-08-28T03:14:45.011Z,18.22
2023-08-28T03:17:14.889Z,18.05
2023-08-28T03:19:42.963Z,17.93
2023-08-28T03:22:12.469Z,17.66
2023-08-28T03:24:40.370Z,17.88
2023-08-28T03:27:08.346Z,18.07
2023-08-28T03:29:36.117Z,17.98
2023-08-28T03:32:04.501Z,17.67
2023-08-28T03:34:32.236Z,18.00
2023-08-28T03:37:00.042Z,17.94
2023-08-28T03:39:27.757Z,17.92
2023-08-28T03:41:55.560Z,17.99
2023-08-28T03:44:23.716Z,17.90
2023-08-28T03:46:51.944Z,17.99
2023-08-28T03:49:19.637Z,18.03
2023-08-28T03:51:47.449Z,17.84
2023-08-28T03:54:15.214Z,17.86
2023-08-28T03:56:43.484Z,17.88
2023-08-28T03:59:12.523Z,17.89
2023-08-28T04:01:40.385Z,17.76
2023-08-28T04:04:08.221Z,17.73
2023-08-28T04:06:36.411Z,17.62
2023-08-28T04:09:04.168Z,17.57
2023-08-28T04:11:32.361Z,17.73
2023-08-28T04:14:00.719Z,17.77
2023-08-28T04:16:28.553Z,17.75
2023-08-28T04:18:56.353Z,17.84
2023-08-28T04:21:24.097Z,17.83
2023-08-28T04:23:51.979Z,17.83
2023-08-28T04:26:19.766Z,17.85
2023-08-28T04:28:47.561Z,17.86
2023-08-28T04:31:15.361Z,17.87
2023-08-28T04:33:43.082Z,17.87
2023-08-28T04:36:10.886Z,17.95
2023-08-28T04:38:38.727Z,18.15
2023-08-28T04:41:06.500Z,18.24
2023-08-28T04:43:35.100Z,18.38
2023-08-28T04:46:03.055Z,18.40
2023-08-28T04:48:33.342Z,18.41
2023-08-28T04:51:01.225Z,18.55
2023-08-28T04:53:29.065Z,18.65
2023-08-28T04:55:56.888Z,18.78
2023-08-28T04:58:26.306Z,18.87
2023-08-28T05:00:55.322Z,19.00
2023-08-28T05:03:23.570Z,19.08
2023-08-28T05:05:54.068Z,19.28
2023-08-28T05:08:21.967Z,19.39
2023-08-28T05:10:49.813Z,19.48
2023-08-28T05:13:18.379Z,19.62
2023-08-28T05:15:46.263Z,19.66
2023-08-28T05:18:14.629Z,19.93
2023-08-28T05:20:42.688Z,19.97
2023-08-28T05:23:11.467Z,20.05
2023-08-28T05:25:39.264Z,20.17
2023-08-28T05:28:07.005Z,20.22
2023-08-28T05:30:34.812Z,20.38
2023-08-28T05:33:02.832Z,20.52
2023-08-28T05:35:30.910Z,20.62
2023-08-28T05:37:58.737Z,20.57
2023-08-28T05:40:27.700Z,20.87
2023-08-28T05:42:55.434Z,20.98
2023-08-28T05:45:23.275Z,21.12
2023-08-28T05:47:51.460Z,21.09
2023-08-28T05:50:19.634Z,21.26
2023-08-28T05:52:48.035Z,21.40
2023-08-28T05:55:15.920Z,21.60
2023-08-28T05:57:43.697Z,21.74
2023-08-28T06:00:15.172Z,21.77
2023-08-28T06:02:44.083Z,21.89
2023-08-28T06:05:11.997Z,22.01
2023-08-28T06:07:39.806Z,22.10
2023-08-28T06:10:09.125Z,22.17
2023-08-28T06:12:36.975Z,22.28
2023-08-28T06:15:06.180Z,22.58
2023-08-28T06:17:33.991Z,22.75
2023-08-28T06:20:01.791Z,22.97
2023-08-28T06:22:29.614Z,22.94
2023-08-28T06:24:58.237Z,23.04
2023-08-28T06:27:26.043Z,23.14
2023-08-28T06:29:53.826Z,23.23
2023-08-28T06:32:21.730Z,23.62
2023-08-28T06:34:49.545Z,23.50
2023-08-28T06:37:17.361Z,23.68
2023-08-28T06:39:45.142Z,23.86
2023-08-28T06:42:13.257Z,24.10
2023-08-28T06:44:43.155Z,24.12
2023-08-28T06:47:10.998Z,24.24
2023-08-28T06:49:38.734Z,24.14
2023-08-28T06:52:06.743Z,24.15
2023-08-28T06:54:49.550Z,24.24
2023-08-28T06:57:20.522Z,24.61
2023-08-28T06:59:50.218Z,24.85
2023-08-28T07:02:18.239Z,25.04
2023-08-28T07:04:46.025Z,25.22
2023-08-28T07:07:21.248Z,25.27
2023-08-28T07:09:49.077Z,25.16
2023-08-28T07:12:16.848Z,25.42
2023-08-28T07:14:44.613Z,25.65
2023-08-28T07:17:12.377Z,25.94
2023-08-28T07:19:40.169Z,25.93
2023-08-28T07:22:07.952Z,25.75
2023-08-28T07:24:35.855Z,26.09
2023-08-28T07:27:04.185Z,26.11
2023-08-28T07:29:31.904Z,26.44
2023-08-28T07:31:59.730Z,26.46
2023-08-28T07:34:27.447Z,26.48
2023-08-28T07:36:55.208Z,26.51
2023-08-28T07:39:23.243Z,26.93
2023-08-28T07:41:51.084Z,26.92
2023-08-28T07:44:18.975Z,27.36
2023-08-28T07:46:46.805Z,27.46
2023-08-28T07:49:14.537Z,27.58
2023-08-28T07:51:42.401Z,27.59
2023-08-28T07:54:10.155Z,27.46
2023-08-28T07:56:37.969Z,27.78
2023-08-28T07:59:05.732Z,28.01
2023-08-28T08:01:33.618Z,28.38
2023-08-28T08:04:01.422Z,28.57
2023-08-28T08:06:29.225Z,29.03
2023-08-28T08:08:57.002Z,29.20
2023-08-28T08:11:24.864Z,29.25
2023-08-28T08:13:52.580Z,29.46
2023-08-28T08:16:20.452Z,29.52
2023-08-28T08:18:48.307Z,29.35
2023-08-28T08:21:16.783Z,28.96
2023-08-28T08:23:44.547Z,29.36
2023-08-28T08:26:12.389Z,29.70
2023-08-28T08:28:40.175Z,29.72
2023-08-28T08:31:08.171Z,29.95
2023-08-28T08:33:35.916Z,30.07
2023-08-28T08:36:03.868Z,30.33
2023-08-28T08:38:31.648Z,30.54
2023-08-28T08:40:59.807Z,30.70
2023-08-28T08:43:27.626Z,30.62
2023-08-28T08:46:00.069Z,30.62
2023-08-28T08:48:29.007Z,30.93
2023-08-28T08:51:02.980Z,30.81
2023-08-28T08:53:33.113Z,31.08
2023-08-28T08:56:02.603Z,31.49
2023-08-28T08:58:31.471Z,31.59
2023-08-28T09:00:59.722Z,31.88
2023-08-28T09:03:27.856Z,32.08
2023-08-28T09:05:55.792Z,32.05
2023-08-28T09:08:24.708Z,31.84
2023-08-28T09:10:52.450Z,31.93
2023-08-28T09:13:20.297Z,32.06
2023-08-28T09:15:48.103Z,32.18
2023-08-28T09:18:15.970Z,32.30
2023-08-28T09:20:43.724Z,32.90
2023-08-28T09:23:11.733Z,33.26
2023-08-28T09:25:39.556Z,33.28
2023-08-28T09:28:07.305Z,33.33
2023-08-28T09:30:39.294Z,33.54
2023-08-28T09:33:08.518Z,33.70
2023-08-28T09:35:39.039Z,33.96
2023-08-28T09:38:06.928Z,33.80
2023-08-28T09:40:41.635Z,33.95
2023-08-28T09:43:12.576Z,33.93
2023-08-28T09:45:41.168Z,34.10
2023-08-28T09:48:09.261Z,34.09
2023-08-28T09:50:42.110Z,34.07
2023-08-28T09:53:10.544Z,34.19
2023-08-28T09:55:48.164Z,34.58
2023-08-28T09:58:16.043Z,34.65
2023-08-28T10:00:44.677Z,34.51
2023-08-28T10:03:13.497Z,34.70
2023-08-28T10:05:43.565Z,34.85
2023-08-28T10:08:13.733Z,35.00
2023-08-28T10:10:42.895Z,34.90
2023-08-28T10:13:20.134Z,34.41
2023-08-28T10:16:11.769Z,34.79
2023-08-28T10:18:41.221Z,34.88
2023-08-28T10:21:09.080Z,35.06
2023-08-28T10:23:36.894Z,34.99
2023-08-28T10:26:04.624Z,34.76
2023-08-28T10:28:32.388Z,34.85
2023-08-28T10:31:00.169Z,34.60
2023-08-28T10:33:29.310Z,35.08
2023-08-28T10:35:57.091Z,35.03
2023-08-28T10:38:24.907Z,35.25
2023-08-28T10:40:53.810Z,35.45
2023-08-28T10:43:22.528Z,35.44
2023-08-28T10:45:51.103Z,34.79
2023-08-28T10:48:19.011Z,35.33
2023-08-28T10:50:46.784Z,35.56
2023-08-28T10:53:15.544Z,35.35
2023-08-28T10:55:54.356Z,35.66
2023-08-28T10:58:22.585Z,35.71
2023-08-28T11:01:15.506Z,35.59
2023-08-28T11:03:52.330Z,35.75
2023-08-28T11:06:35.630Z,35.98
2023-08-28T11:09:31.380Z,36.00
2023-08-28T11:11:59.175Z,35.77
2023-08-28T11:14:39.643Z,35.65
2023-08-28T11:17:12.078Z,35.64
2023-08-28T11:19:57.922Z,35.80
2023-08-28T11:22:28.667Z,35.73
2023-08-28T11:24:56.836Z,36.07
2023-08-28T11:27:54.550Z,36.21
2023-08-28T13:09:59.542Z,35.09
2023-08-28T13:12:27.706Z,35.45
2023-08-28T13:14:55.600Z,35.11
2023-08-28T13:17:23.531Z,34.92
2023-08-28T13:19:51.346Z,35.08
2023-08-28T13:22:19.143Z,35.10
2023-08-28T13:24:46.878Z,35.00
2023-08-28T13:27:14.672Z,34.55
2023-08-28T13:29:42.458Z,34.87
2023-08-28T13:32:10.185Z,34.65
2023-08-28T13:34:38.009Z,34.62
2023-08-28T13:37:07.127Z,34.93
2023-08-28T13:39:34.982Z,34.67
2023-08-28T13:42:02.754Z,34.84
2023-08-28T13:44:31.721Z,34.70
2023-08-28T13:46:59.654Z,34.25
2023-08-28T13:49:27.495Z,34.82
2023-08-28T13:51:55.262Z,35.14
2023-08-28T13:54:23.045Z,35.38
2023-08-28T13:56:52.325Z,35.45
2023-08-28T13:59:20.081Z,35.47
2023-08-28T14:01:47.932Z,35.41
2023-08-28T14:04:15.745Z,35.18
2023-08-28T14:06:43.505Z,34.82
2023-08-28T14:09:11.291Z,35.29
2023-08-28T14:11:39.076Z,35.28
2023-08-28T14:14:06.923Z,34.98
2023-08-28T14:16:34.704Z,34.95
2023-08-28T14:19:02.483Z,34.73
2023-08-28T14:21:30.218Z,34.62
2023-08-28T14:23:58.368Z,34.58
2023-08-28T14:26:26.739Z,34.72
2023-08-28T14:28:54.786Z,34.94
2023-08-28T14:31:22.540Z,35.00
2023-08-28T14:33:50.356Z,35.15
2023-08-28T14:36:18.132Z,35.08
2023-08-28T14:38:45.889Z,35.09
2023-08-28T14:41:13.855Z,35.12
2023-08-28T14:43:41.650Z,34.84
2023-08-28T14:46:09.453Z,35.14
2023-08-28T14:48:37.229Z,35.04
2023-08-28T14:51:04.970Z,34.96
2023-08-28T14:53:32.779Z,35.22
2023-08-28T14:56:00.557Z,35.14
2023-08-28T14:58:28.424Z,34.53
2023-08-28T15:00:56.319Z,35.04
2023-08-28T15:03:24.703Z,35.23
2023-08-28T15:05:52.578Z,35.08
2023-08-28T15:08:20.435Z,35.08
2023-08-28T15:10:51.948Z,35.02
2023-08-28T15:13:19.861Z,34.67
2023-08-28T15:15:47.891Z,34.15
2023-08-28T15:18:15.960Z,34.23
2023-08-28T15:20:43.803Z,34.45
2023-08-28T15:23:11.730Z,34.26
2023-08-28T15:25:39.634Z,34.29
2023-08-28T15:28:09.412Z,33.73
2023-08-28T15:30:37.183Z,33.73
2023-08-28T15:33:05.813Z,33.28
2023-08-28T15:35:34.242Z,33.28
2023-08-28T15:38:02.025Z,33.28
2023-08-28T15:40:29.786Z,33.62
2023-08-28T15:42:57.708Z,33.61
2023-08-28T15:45:25.652Z,33.59
2023-08-28T15:47:53.518Z,33.32
2023-08-28T15:50:21.312Z,33.38
2023-08-28T15:52:49.153Z,33.05
2023-08-28T15:55:17.001Z,33.40
2023-08-28T15:57:45.730Z,33.51
2023-08-28T16:00:13.976Z,33.51
2023-08-28T16:02:41.779Z,33.50
2023-08-28T16:05:09.706Z,33.56
2023-08-28T16:07:37.442Z,33.45
2023-08-28T16:10:06.210Z,33.37
2023-08-28T16:12:34.085Z,33.37
2023-08-28T16:15:01.908Z,33.33
2023-08-28T16:17:29.749Z,33.26
2023-08-28T16:19:57.572Z,33.14
2023-08-28T16:22:25.318Z,33.09
2023-08-28T16:24:53.404Z,33.06
2023-08-28T16:27:22.258Z,33.00
2023-08-28T16:29:51.093Z,32.88
2023-08-28T16:32:20.805Z,32.74
2023-08-28T16:34:48.899Z,32.60
2023-08-28T16:37:18.287Z,32.39
2023-08-28T16:39:46.111Z,32.25
2023-08-28T16:42:13.876Z,32.12
2023-08-28T16:44:43.450Z,31.91
2023-08-28T16:47:11.188Z,31.67
2023-08-28T16:49:39.088Z,31.63
2023-08-28T16:52:06.917Z,31.59
2023-08-28T16:54:37.289Z,31.50
2023-08-28T16:57:05.687Z,31.40
2023-08-28T16:59:33.409Z,31.24
2023-08-28T17:02:01.169Z,31.18
2023-08-28T17:04:29.143Z,30.89
2023-08-28T17:07:00.543Z,30.69
2023-08-28T17:09:29.596Z,30.57
2023-08-28T17:11:58.341Z,30.40
2023-08-28T17:14:26.186Z,30.18
2023-08-28T17:16:56.617Z,30.04
2023-08-28T17:19:24.459Z,30.07
2023-08-28T17:21:52.348Z,29.95
2023-08-28T17:24:20.165Z,29.51
2023-08-28T17:26:47.890Z,29.47
2023-08-28T17:29:16.293Z,29.24
2023-08-28T17:31:44.102Z,29.27
2023-08-28T17:34:11.959Z,28.90
2023-08-28T17:36:39.744Z,28.93
2023-08-28T17:39:16.778Z,29.03
2023-08-28T17:41:44.735Z,29.04
2023-08-28T17:44:14.122Z,28.66
2023-08-28T17:46:42.801Z,28.36
2023-08-28T17:49:10.714Z,28.30
2023-08-28T17:51:40.331Z,28.41
2023-08-28T17:54:08.252Z,28.31
2023-08-28T17:56:36.934Z,28.01
2023-08-28T17:59:04.993Z,28.02
2023-08-28T18:01:33.015Z,28.02
2023-08-28T18:04:01.354Z,27.60
2023-08-28T18:06:31.153Z,27.75
2023-08-28T18:08:58.925Z,27.78
2023-08-28T18:11:26.682Z,27.27
2023-08-28T18:13:54.936Z,27.41
2023-08-28T18:16:22.853Z,27.38
2023-08-28T18:18:52.934Z,27.19
2023-08-28T18:21:20.697Z,27.10
2023-08-28T18:23:52.204Z,27.21
2023-08-28T18:26:20.838Z,26.86
2023-08-28T18:28:48.760Z,26.95
2023-08-28T18:31:16.618Z,26.50
2023-08-28T18:33:44.515Z,26.42
2023-08-28T18:36:12.301Z,26.61
2023-08-28T18:38:43.060Z,26.44
2023-08-28T18:41:11.326Z,26.42
2023-08-28T18:43:39.208Z,26.30
2023-08-28T18:46:07.072Z,25.68
2023-08-28T18:48:35.032Z,26.07
2023-08-28T18:51:04.276Z,25.35
2023-08-28T18:53:32.031Z,25.87
2023-08-28T18:56:00.376Z,25.90
2023-08-28T18:58:28.400Z,25.83
2023-08-28T19:00:59.405Z,25.90
2023-08-28T19:03:27.420Z,26.03
2023-08-28T19:05:56.226Z,25.83
2023-08-28T19:08:24.121Z,25.27
2023-08-28T19:10:53.376Z,25.55
2023-08-28T19:13:21.279Z,25.49
2023-08-28T19:15:49.645Z,25.61
2023-08-28T19:18:17.699Z,25.69
2023-08-28T19:21:00.227Z,25.44
2023-08-28T19:23:30.851Z,25.50
2023-08-28T19:25:58.646Z,25.41
2023-08-28T19:28:26.488Z,25.32
2023-08-28T19:30:54.514Z,25.44
2023-08-28T19:33:22.906Z,25.50
2023-08-28T19:35:51.995Z,25.45
2023-08-28T19:38:20.152Z,25.56
2023-08-28T19:40:48.077Z,25.36
2023-08-28T19:43:16.559Z,25.58
2023-08-28T19:45:44.513Z,25.56
2023-08-28T19:48:12.316Z,25.37
2023-08-28T19:50:41.013Z,25.39
2023-08-28T19:53:09.504Z,25.26
2023-08-28T19:55:37.333Z,25.28
2023-08-28T19:58:05.575Z,25.25
2023-08-28T20:00:33.740Z,25.11
2023-08-28T20:03:01.586Z,25.18
2023-08-28T20:05:29.461Z,25.21
2023-08-28T20:07:57.227Z,25.14
2023-08-28T20:10:24.994Z,25.10
2023-08-28T20:12:52.819Z,25.02
2023-08-28T20:15:23.124Z,24.92
2023-08-28T20:17:51.826Z,24.67
2023-08-28T20:20:19.855Z,24.63
2023-08-28T20:22:47.880Z,24.75
2023-08-28T20:25:16.157Z,24.48
2023-08-28T20:27:44.606Z,24.49
2023-08-28T20:30:12.724Z,24.55
2023-08-28T20:32:40.980Z,24.55
2023-08-28T20:35:10.035Z,24.46
2023-08-28T20:37:39.018Z,24.55
2023-08-28T20:40:07.974Z,24.30
2023-08-28T20:42:36.937Z,23.98
2023-08-28T20:45:06.316Z,24.04
2023-08-28T20:47:37.389Z,23.94
2023-08-28T20:50:09.840Z,22.82
2023-08-28T20:52:38.670Z,23.70
2023-08-28T20:55:08.300Z,23.73
2023-08-28T20:57:36.457Z,23.79
2023-08-28T21:00:06.158Z,23.82
2023-08-28T21:02:34.170Z,23.37
2023-08-28T21:05:02.472Z,23.67
2023-08-28T21:07:31.522Z,23.60
2023-08-28T21:09:59.290Z,23.51
2023-08-28T21:12:27.072Z,23.55
2023-08-28T21:14:55.397Z,23.54
2023-08-28T21:17:23.242Z,23.29
2023-08-28T21:19:54.401Z,23.35
2023-08-28T21:22:24.906Z,22.69
2023-08-28T21:24:52.870Z,22.94
2023-08-28T21:27:22.082Z,22.95
2023-08-28T21:29:49.875Z,22.58
2023-08-28T21:32:17.681Z,22.84
2023-08-28T21:34:45.513Z,23.00
2023-08-28T21:37:13.331Z,22.69
2023-08-28T21:39:41.489Z,22.66
2023-08-28T21:42:09.736Z,22.82
2023-08-28T21:44:38.629Z,22.79
2023-08-28T21:47:06.690Z,22.63
2023-08-28T21:49:53.598Z,22.54
2023-08-28T21:52:40.436Z,22.52
2023-08-28T21:55:27.098Z,22.26
2023-08-28T21:58:14.495Z,22.11
2023-08-28T22:01:01.008Z,22.40
2023-08-28T22:03:47.888Z,22.41
2023-08-28T22:06:36.156Z,22.33
2023-08-28T22:09:04.987Z,22.37
2023-08-28T22:12:04.869Z,22.44
2023-08-28T22:14:38.879Z,21.84
2023-08-28T22:17:07.269Z,22.01
2023-08-28T22:19:35.202Z,21.87
2023-08-28T22:22:03.765Z,22.02
2023-08-28T22:24:31.535Z,22.13
2023-08-28T22:27:02.815Z,21.97
2023-08-28T22:29:31.794Z,22.02
2023-08-28T22:31:59.615Z,21.95
2023-08-28T22:34:27.838Z,21.71
2023-08-28T22:36:56.366Z,21.79
2023-08-28T22:39:24.220Z,21.92
2023-08-28T22:41:52.056Z,21.39
2023-08-28T22:44:20.894Z,21.66
2023-08-28T22:46:48.735Z,21.72
2023-08-28T22:49:16.532Z,21.64
2023-08-28T22:51:45.358Z,21.36
2023-08-28T22:54:13.597Z,21.40
2023-08-28T22:56:41.425Z,21.52
2023-08-28T22:59:09.204Z,21.17
2023-08-28T23:01:38.223Z,21.26
2023-08-28T23:04:08.529Z,21.30
2023-08-28T23:06:36.352Z,21.23
2023-08-28T23:09:06.463Z,21.27
2023-08-28T23:11:34.336Z,21.23
2023-08-28T23:14:02.517Z,21.37
2023-08-28T23:16:31.076Z,21.23
2023-08-28T23:18:59.265Z,21.30
2023-08-28T23:21:27.186Z,21.33
2023-08-28T23:23:56.366Z,21.36
2023-08-28T23:26:25.085Z,21.03
2023-08-28T23:28:53.006Z,21.24
2023-08-28T23:31:20.985Z,21.25
2023-08-28T23:33:49.238Z,21.07
2023-08-28T23:36:17.022Z,21.14
2023-08-28T23:38:44.870Z,21.17
2023-08-28T23:41:12.635Z,21.21
2023-08-28T23:43:40.385Z,20.94
2023-08-28T23:46:08.215Z,21.07
2023-08-28T23:48:36.515Z,20.81
2023-08-28T23:51:05.788Z,20.83
2023-08-28T23:53:34.617Z,20.80
2023-08-28T23:56:03.473Z,20.75
2023-08-28T23:58:32.598Z,20.39
